Time;durP1;ratioP1;P1;durP2;ratioP2;P2;SDS_P1;SDS_P2;PMS_P1;PMS_P2;Temp;Humidity;BMP_temperature;BMP_pressure;BME280_temperature;BME280_humidity;BME280_pressure;Samples;Min_cycle;Max_cycle;Signal;HPM_P1;HPM_P2
2023/04/23 00:03:15;;;;;;;10.65;5.72;;;;;;;;;;10310190;28;20049;-85
2023/04/23 00:08:19;;;;;;;7.43;5.28;;;;;;;;;;10308245;28;20499;-85
2023/04/23 00:13:19;;;;;;;6.95;5.38;;;;;;;;;;10304707;28;20113;-85
2023/04/23 00:18:20;;;;;;;5.47;4.85;;;;;;;;;;10303911;28;20802;-86
2023/04/23 00:23:20;;;;;;;5.77;4.70;;;;;;;;;;10319955;28;20038;-86
2023/04/23 00:28:22;;;;;;;5.00;4.50;;;;;;;;;;10316872;28;20310;-85
2023/04/23 00:33:22;;;;;;;6.67;5.17;;;;;;;;;;10307528;28;20042;-84
2023/04/23 00:38:22;;;;;;;6.73;5.47;;;;;;;;;;10308522;28;20069;-84
2023/04/23 00:43:23;;;;;;;6.68;5.00;;;;;;;;;;10347998;28;20293;-85
2023/04/23 00:48:23;;;;;;;5.57;5.00;;;;;;;;;;10281782;28;20050;-82
2023/04/23 00:53:24;;;;;;;6.60;5.07;;;;;;;;;;10300901;28;20054;-82
2023/04/23 00:58:25;;;;;;;5.38;4.57;;;;;;;;;;10293359;28;20047;-83
2023/04/23 01:03:25;;;;;;;5.57;4.85;;;;;;;;;;10308525;28;20042;-85
2023/04/23 01:08:27;;;;;;;6.93;5.47;;;;;;;;;;10341642;28;20057;-84
2023/04/23 01:13:29;;;;;;;6.85;5.30;;;;;;;;;;10329180;28;20065;-85
2023/04/23 01:18:30;;;;;;;5.57;4.70;;;;;;;;;;10301938;28;20057;-86
2023/04/23 01:23:30;;;;;;;7.25;5.32;;;;;;;;;;10332856;28;20065;-85
2023/04/23 01:28:31;;;;;;;7.28;6.03;;;;;;;;;;10323434;28;20118;-86
2023/04/23 01:33:32;;;;;;;6.43;5.65;;;;;;;;;;10306331;28;20043;-87
2023/04/23 01:38:34;;;;;;;6.70;5.45;;;;;;;;;;10316121;28;20043;-83
2023/04/23 01:43:36;;;;;;;6.15;5.32;;;;;;;;;;10307648;28;20049;-86
2023/04/23 01:48:37;;;;;;;6.15;5.07;;;;;;;;;;10339764;28;20081;-82
2023/04/23 01:53:37;;;;;;;8.23;6.07;;;;;;;;;;10349356;28;20043;-80
2023/04/23 01:58:38;;;;;;;7.17;5.90;;;;;;;;;;10313625;28;20042;-82
2023/04/23 02:03:38;;;;;;;7.65;6.65;;;;;;;;;;10290850;28;20321;-81
2023/04/23 02:08:38;;;;;;;9.70;7.23;;;;;;;;;;10299456;28;20054;-82
2023/04/23 02:13:40;;;;;;;7.40;6.53;;;;;;;;;;10286960;28;20290;-83
2023/04/23 02:18:41;;;;;;;9.60;8.00;;;;;;;;;;10303452;28;20050;-83
2023/04/23 02:23:43;;;;;;;9.82;8.15;;;;;;;;;;10284072;28;20341;-82
2023/04/23 02:28:45;;;;;;;7.35;6.53;;;;;;;;;;10291085;28;20065;-81
2023/04/23 02:33:45;;;;;;;11.00;8.18;;;;;;;;;;10294035;28;20439;-81
2023/04/23 02:38:48;;;;;;;8.98;7.82;;;;;;;;;;10282339;28;20050;-82
2023/04/23 02:43:51;;;;;;;9.50;7.60;;;;;;;;;;10299538;28;20038;-86
2023/04/23 02:48:51;;;;;;;;;;;;;;;;;;10343555;28;20069;-83
2023/04/23 02:53:52;;;;;;;10.38;7.03;;;;;;;;;;10362277;28;19902;-84
2023/04/23 02:58:53;;;;;;;7.22;6.47;;;;;;;;;;10359264;28;20043;-82
2023/04/23 03:03:55;;;;;;;7.77;6.90;;;;;;;;;;10339491;28;20356;-80
2023/04/23 03:08:55;;;;;;;8.75;6.65;;;;;;;;;;10311292;28;20789;-82
2023/04/23 03:13:57;;;;;;;6.88;5.75;;;;;;;;;;10325332;28;20042;-79
2023/04/23 03:18:58;;;;;;;5.57;4.78;;;;;;;;;;10324459;28;20046;-81
2023/04/23 03:23:58;;;;;;;6.68;5.00;;;;;;;;;;10341669;28;20045;-83
2023/04/23 03:28:59;;;;;;;5.70;4.57;;;;;;;;;;10297719;28;20073;-83
2023/04/23 03:34:00;;;;;;;5.28;4.72;;;;;;;;;;10298152;28;20302;-83
2023/04/23 03:39:06;;;;;;;5.35;4.78;;;;;;;;;;10304962;28;20039;-82
2023/04/23 03:44:20;;;;;;;5.75;4.82;;;;;;;;;;10281124;28;20042;-82
2023/04/23 03:49:21;;;;;;;6.22;5.28;;;;;;;;;;10279648;28;20062;-82
2023/04/23 03:54:23;;;;;;;5.70;4.85;;;;;;;;;;10279199;28;20050;-80
2023/04/23 03:59:45;;;;;;;6.80;5.28;;;;;;;;;;10279517;28;20045;-82
2023/04/23 04:04:50;;;;;;;8.43;6.10;;;;;;;;;;10281704;28;20054;-82
2023/04/23 04:09:50;;;;;;;6.70;5.57;;;;;;;;;;10326559;28;20110;-81
2023/04/23 04:14:51;;;;;;;7.00;5.47;;;;;;;;;;10312545;28;20803;-84
2023/04/23 04:19:52;;;;;;;6.95;5.40;;;;;;;;;;10299831;28;20289;-80
2023/04/23 04:24:56;;;;;;;8.23;5.73;;;;;;;;;;10298221;28;20045;-82
2023/04/23 04:29:57;;;;;;;6.30;4.95;;;;;;;;;;10298548;28;20131;-83
2023/04/23 04:34:59;;;;;;;6.72;5.45;;;;;;;;;;10297440;28;20061;-81
2023/04/23 04:40:00;;;;;;;7.35;5.35;;;;;;;;;;10294495;28;20491;-81
2023/04/23 04:45:03;;;;;;;7.75;5.28;;;;;;;;;;10278886;28;20083;-81
2023/04/23 04:50:04;;;;;;;6.35;5.03;;;;;;;;;;10292596;28;20062;-81
2023/04/23 04:55:06;;;;;;;5.10;4.47;;;;;;;;;;10291079;28;20042;-80
2023/04/23 05:00:21;;;;;;;5.38;4.63;;;;;;;;;;10308783;28;20051;-80
2023/04/23 05:05:22;;;;;;;6.32;5.28;;;;;;;;;;10304145;28;20042;-81
2023/04/23 05:10:23;;;;;;;8.02;5.70;;;;;;;;;;10290578;28;20148;-80
2023/04/23 05:15:23;;;;;;;8.43;5.77;;;;;;;;;;10284892;28;20056;-81
2023/04/23 05:20:24;;;;;;;6.57;5.75;;;;;;;;;;10298237;28;20047;-80
2023/04/23 05:25:26;;;;;;;6.55;5.63;;;;;;;;;;10300451;28;20078;-80
2023/04/23 05:30:26;;;;;;;7.13;5.50;;;;;;;;;;10289113;28;20055;-80
2023/04/23 05:35:26;;;;;;;6.53;5.03;;;;;;;;;;10295654;28;20034;-83
2023/04/23 05:40:27;;;;;;;4.80;4.10;;;;;;;;;;10326638;28;20375;-85
2023/04/23 05:45:27;;;;;;;6.40;4.75;;;;;;;;;;10317642;28;20051;-85
2023/04/23 05:50:28;;;;;;;6.93;5.00;;;;;;;;;;10286712;28;20090;-82
2023/04/23 05:55:28;;;;;;;6.05;4.55;;;;;;;;;;10300074;28;20301;-84
2023/04/23 06:00:31;;;;;;;6.00;4.87;;;;;;;;;;10280449;28;20605;-82
2023/04/23 06:05:31;;;;;;;6.45;5.35;;;;;;;;;;10302989;28;20305;-84
2023/04/23 06:10:32;;;;;;;6.13;4.70;;;;;;;;;;10308098;28;20066;-87
2023/04/23 06:15:33;;;;;;;4.68;4.10;;;;;;;;;;10328332;28;20054;-85
2023/04/23 06:20:33;;;;;;;4.75;3.90;;;;;;;;;;10328981;28;20031;-84
2023/04/23 06:25:34;;;;;;;4.82;3.70;;;;;;;;;;10356874;28;20058;-81
2023/04/23 06:30:35;;;;;;;4.53;3.70;;;;;;;;;;10344182;28;20054;-82
2023/04/23 06:35:36;;;;;;;4.85;4.00;;;;;;;;;;10319247;28;20404;-83
2023/04/23 06:40:38;;;;;;;5.95;4.55;;;;;;;;;;10304491;28;20057;-84
2023/04/23 06:45:39;;;;;;;5.57;4.38;;;;;;;;;;10319200;28;20045;-85
2023/04/23 06:50:41;;;;;;;5.65;4.35;;;;;;;;;;10304863;28;20058;-86
2023/04/23 06:55:44;;;;;;;6.22;4.68;;;;;;;;;;10305711;28;20058;-84
2023/04/23 07:00:44;;;;;;;5.93;4.63;;;;;;;;;;10294324;28;20042;-84
2023/04/23 07:05:45;;;;;;;5.57;4.38;;;;;;;;;;10261524;28;20146;-83
2023/04/23 07:10:46;;;;;;;4.67;3.43;;;;;;;;;;10286090;28;20046;-80
2023/04/23 07:15:47;;;;;;;4.82;3.90;;;;;;;;;;10300535;28;20117;-83
2023/04/23 07:20:48;;;;;;;5.45;4.47;;;;;;;;;;10298797;28;20052;-82
2023/04/23 07:25:48;;;;;;;5.00;3.88;;;;;;;;;;10306354;28;20038;-87
2023/04/23 07:30:49;;;;;;;4.70;3.93;;;;;;;;;;10338397;28;20053;-84
2023/04/23 07:35:51;;;;;;;5.13;4.32;;;;;;;;;;10327624;28;20873;-82
2023/04/23 07:40:54;;;;;;;4.80;4.23;;;;;;;;;;10310365;28;20054;-85
2023/04/23 07:45:54;;;;;;;;;;;;;;;;;;10294084;28;20037;-85
2023/04/23 07:50:55;;;;;;;4.88;3.78;;;;;;;;;;10329912;28;20699;-85
2023/04/23 07:55:57;;;;;;;4.57;3.63;;;;;;;;;;10314455;28;20137;-83
2023/04/23 08:00:57;;;;;;;3.83;3.42;;;;;;;;;;10313494;28;20050;-82
2023/04/23 08:05:57;;;;;;;3.53;3.23;;;;;;;;;;10317212;28;20094;-85
2023/04/23 08:10:58;;;;;;;5.43;4.32;;;;;;;;;;10314541;28;20046;-86
2023/04/23 08:15:58;;;;;;;4.57;4.00;;;;;;;;;;10325695;28;20610;-89
2023/04/23 08:20:58;;;;;;;5.53;4.50;;;;;;;;;;10321414;28;20085;-87
2023/04/23 08:26:01;;;;;;;5.93;4.95;;;;;;;;;;10327338;28;20050;-85
2023/04/23 08:31:01;;;;;;;6.07;5.33;;;;;;;;;;10336225;28;20054;-87
2023/04/23 08:36:02;;;;;;;4.20;3.80;;;;;;;;;;10540482;23;20125;-83
2023/04/23 08:41:05;;;;;;;4.72;3.83;;;;;;;;;;10486121;23;20055;-84
2023/04/23 08:46:09;;;;;;;4.25;3.60;;;;;;;;;;10455954;23;20065;-87
2023/04/23 08:51:15;;;;;;;3.25;2.80;;;;;;;;;;10327179;28;20038;-85
2023/04/23 08:56:26;;;;;;;3.33;2.80;;;;;;;;;;10303845;28;20110;-85
2023/04/23 09:01:29;;;;;;;2.80;2.43;;;;;;;;;;10346107;28;20042;-86
2023/04/23 09:06:32;;;;;;;2.65;2.45;;;;;;;;;;10352951;28;20106;-83
2023/04/23 09:11:34;;;;;;;2.30;2.10;;;;;;;;;;10349856;28;20045;-85
2023/04/23 09:22:07;;;;;;;3.38;2.58;;;;;;;;;;10628426;23;20042;-86
2023/04/23 09:27:08;;;;;;;2.30;2.10;;;;;;;;;;10611337;23;20070;-83
2023/04/23 09:32:10;;;;;;;1.60;1.50;;;;;;;;;;10329397;28;20043;-91
2023/04/23 09:37:12;;;;;;;1.50;1.40;;;;;;;;;;10333474;28;20035;-89
2023/04/23 09:42:14;;;;;;;2.33;1.95;;;;;;;;;;10341950;28;20054;-90
2023/04/23 09:47:16;;;;;;;2.22;1.75;;;;;;;;;;10319683;28;20079;-88
2023/04/23 09:52:19;;;;;;;3.10;2.63;;;;;;;;;;10316524;28;20051;-85
2023/04/23 09:57:23;;;;;;;1.90;1.80;;;;;;;;;;10293667;28;20049;-84
2023/04/23 10:02:32;;;;;;;2.28;1.83;;;;;;;;;;10275455;28;20059;-81
2023/04/23 10:07:33;;;;;;;1.73;1.63;;;;;;;;;;10288083;28;20669;-81
2023/04/23 10:12:33;;;;;;;1.95;1.77;;;;;;;;;;10276275;28;20046;-81
2023/04/23 10:17:34;;;;;;;2.00;1.60;;;;;;;;;;10320713;28;20082;-88
2023/04/23 10:22:36;;;;;;;2.63;1.45;;;;;;;;;;10314528;28;20074;-86
2023/04/23 10:27:40;;;;;;;2.53;1.65;;;;;;;;;;10315536;28;20042;-85
2023/04/23 10:32:44;;;;;;;2.42;1.40;;;;;;;;;;10336585;28;20027;-87
2023/04/23 10:37:48;;;;;;;2.63;1.80;;;;;;;;;;10331501;28;20042;-89
2023/04/23 10:42:50;;;;;;;1.92;1.73;;;;;;;;;;10309077;28;20051;-87
2023/04/23 10:47:52;;;;;;;2.28;1.92;;;;;;;;;;10308502;28;20133;-87
2023/04/23 10:52:55;;;;;;;2.92;1.90;;;;;;;;;;10321277;28;20092;-86
2023/04/23 10:57:57;;;;;;;2.20;1.93;;;;;;;;;;10319112;28;20047;-87
2023/04/23 11:02:58;;;;;;;;;;;;;;;;;;10268947;28;20051;-86
2023/04/23 11:08:07;;;;;;;2.05;1.88;;;;;;;;;;10291764;28;19926;-88
2023/04/23 11:13:21;;;;;;;2.20;1.90;;;;;;;;;;10296302;28;20062;-88
2023/04/23 11:18:22;;;;;;;3.03;2.03;;;;;;;;;;10272085;28;20062;-82
2023/04/23 11:23:31;;;;;;;1.93;1.83;;;;;;;;;;10267609;28;20054;-76
2023/04/23 11:28:32;;;;;;;2.10;1.70;;;;;;;;;;10260971;28;20086;-78
2023/04/23 11:33:33;;;;;;;2.45;1.92;;;;;;;;;;10266605;28;20403;-79
2023/04/23 11:38:33;;;;;;;3.30;2.00;;;;;;;;;;10264088;28;20053;-81
2023/04/23 11:43:35;;;;;;;1.98;1.67;;;;;;;;;;10243728;28;20660;-77
2023/04/23 11:48:35;;;;;;;2.05;1.60;;;;;;;;;;10249587;28;20580;-77
2023/04/23 11:53:43;;;;;;;3.03;1.70;;;;;;;;;;10267027;28;20056;-75
2023/04/23 11:58:43;;;;;;;3.65;1.90;;;;;;;;;;10259719;28;20394;-77
2023/04/23 12:03:47;;;;;;;2.27;2.03;;;;;;;;;;10263320;28;20580;-76
2023/04/23 12:08:47;;;;;;;1.90;1.70;;;;;;;;;;10259095;28;20911;-75
2023/04/23 12:13:48;;;;;;;1.77;1.67;;;;;;;;;;10254926;28;20047;-82
2023/04/23 12:18:52;;;;;;;2.08;1.70;;;;;;;;;;10268212;28;20220;-82
2023/04/23 12:23:52;;;;;;;2.60;1.63;;;;;;;;;;10296574;28;20123;-86
2023/04/23 12:28:56;;;;;;;2.03;1.87;;;;;;;;;;10316643;28;20047;-89
2023/04/23 12:33:59;;;;;;;2.45;2.08;;;;;;;;;;10283380;28;20298;-84
2023/04/23 12:39:18;;;;;;;2.67;2.08;;;;;;;;;;10286819;28;20047;-86
2023/04/23 12:44:19;;;;;;;1.85;1.67;;;;;;;;;;10282830;28;20051;-83
2023/04/23 12:49:20;;;;;;;1.85;1.70;;;;;;;;;;10277329;28;20090;-84
2023/04/23 12:54:21;;;;;;;2.20;1.50;;;;;;;;;;10281565;28;20108;-85
2023/04/23 12:59:22;;;;;;;2.40;1.50;;;;;;;;;;10284833;28;20047;-86
2023/04/23 13:04:23;;;;;;;1.98;1.70;;;;;;;;;;10273664;28;20042;-76
2023/04/23 13:09:25;;;;;;;1.50;1.40;;;;;;;;;;10242156;28;20887;-77
2023/04/23 13:14:26;;;;;;;3.25;1.73;;;;;;;;;;10228722;28;20165;-77
2023/04/23 13:19:26;;;;;;;2.08;1.60;;;;;;;;;;10256235;28;20062;-75
2023/04/23 13:24:27;;;;;;;2.38;1.40;;;;;;;;;;10260080;28;20047;-74
2023/04/23 13:29:27;;;;;;;3.30;1.80;;;;;;;;;;10256944;28;20055;-74
2023/04/23 13:34:29;;;;;;;1.20;1.10;;;;;;;;;;10250128;28;20042;-74
2023/04/23 13:39:30;;;;;;;1.52;1.17;;;;;;;;;;10244206;28;20051;-74
2023/04/23 13:44:30;;;;;;;2.88;1.40;;;;;;;;;;10241418;28;20106;-73
2023/04/23 13:49:31;;;;;;;1.70;1.30;;;;;;;;;;10262882;28;20783;-73
2023/04/23 13:54:31;;;;;;;1.23;0.90;;;;;;;;;;10262123;28;20050;-74
2023/04/23 13:59:32;;;;;;;1.17;1.08;;;;;;;;;;10243329;28;20047;-76
2023/04/23 14:04:32;;;;;;;1.73;1.33;;;;;;;;;;10252153;28;20042;-78
2023/04/23 14:09:32;;;;;;;2.17;1.20;;;;;;;;;;10250382;28;20322;-78
2023/04/23 14:14:33;;;;;;;1.38;1.23;;;;;;;;;;10236886;28;20046;-79
2023/04/23 14:19:36;;;;;;;1.60;1.30;;;;;;;;;;10256564;28;20081;-77
2023/04/23 14:24:44;;;;;;;1.17;1.00;;;;;;;;;;10263315;28;20517;-79
2023/04/23 14:29:45;;;;;;;1.63;1.20;;;;;;;;;;10248711;28;20594;-78
2023/04/23 14:34:46;;;;;;;2.30;1.20;;;;;;;;;;10261689;28;20038;-77
2023/04/23 14:39:46;;;;;;;1.30;1.20;;;;;;;;;;10244164;28;20047;-78
2023/04/23 14:44:46;;;;;;;1.53;1.40;;;;;;;;;;10261550;28;20332;-81
2023/04/23 14:49:47;;;;;;;2.10;1.30;;;;;;;;;;10244455;28;20869;-77
2023/04/23 14:54:47;;;;;;;2.08;1.70;;;;;;;;;;10266256;28;20302;-76
2023/04/23 14:59:49;;;;;;;1.80;1.30;;;;;;;;;;10296235;28;20038;-77
2023/04/23 15:04:49;;;;;;;1.80;1.47;;;;;;;;;;10305956;28;21091;-79
2023/04/23 15:09:50;;;;;;;3.63;1.50;;;;;;;;;;10269611;28;20316;-80
2023/04/23 15:14:53;;;;;;;1.63;1.13;;;;;;;;;;10272159;28;20044;-84
2023/04/23 15:19:58;;;;;;;1.67;1.40;;;;;;;;;;10274017;28;20085;-84
2023/04/23 15:24:59;;;;;;;2.17;1.23;;;;;;;;;;10310470;28;20043;-79
2023/04/23 15:29:59;;;;;;;1.93;1.70;;;;;;;;;;10290541;28;20121;-77
2023/04/23 15:34:59;;;;;;;1.87;1.10;;;;;;;;;;10267231;28;20043;-81
2023/04/23 15:40:00;;;;;;;2.20;1.40;;;;;;;;;;10265196;28;20043;-78
2023/04/23 15:45:02;;;;;;;3.35;1.20;;;;;;;;;;10264429;28;20047;-79
2023/04/23 15:50:03;;;;;;;1.50;1.40;;;;;;;;;;10251240;28;20499;-79
2023/04/23 15:55:04;;;;;;;1.50;1.40;;;;;;;;;;10260977;28;20051;-80
2023/04/23 16:00:05;;;;;;;3.75;1.20;;;;;;;;;;10261523;28;20078;-79
2023/04/23 16:05:12;;;;;;;2.45;1.27;;;;;;;;;;10261377;28;20057;-81
2023/04/23 16:10:12;;;;;;;1.50;1.30;;;;;;;;;;10256130;28;20066;-80
2023/04/23 16:15:13;;;;;;;2.03;1.30;;;;;;;;;;10265038;28;20053;-77
2023/04/23 16:20:13;;;;;;;1.75;1.55;;;;;;;;;;10260210;28;20351;-81
2023/04/23 16:25:14;;;;;;;2.77;1.23;;;;;;;;;;10245554;28;20058;-79
2023/04/23 16:30:15;;;;;;;1.33;1.20;;;;;;;;;;10255291;28;20437;-78
2023/04/23 16:35:15;;;;;;;1.80;1.23;;;;;;;;;;10260085;28;20334;-79
2023/04/23 16:40:17;;;;;;;1.30;1.17;;;;;;;;;;10263746;28;20051;-79
2023/04/23 16:45:21;;;;;;;1.40;1.30;;;;;;;;;;10264628;28;20138;-81
2023/04/23 16:50:22;;;;;;;1.67;1.13;;;;;;;;;;10240837;28;20066;-79
2023/04/23 16:55:22;;;;;;;2.08;1.35;;;;;;;;;;10259957;28;20506;-77
2023/04/23 17:00:24;;;;;;;7.20;1.73;;;;;;;;;;10262235;28;20726;-80
2023/04/23 17:05:24;;;;;;;1.63;1.15;;;;;;;;;;10256859;28;20055;-78
2023/04/23 17:10:27;;;;;;;2.20;1.20;;;;;;;;;;10254941;28;20093;-79
2023/04/23 17:15:27;;;;;;;2.53;1.27;;;;;;;;;;10238920;28;20139;-80
2023/04/23 17:20:27;;;;;;;1.33;1.23;;;;;;;;;;10284120;28;20485;-80
2023/04/23 17:25:28;;;;;;;2.25;1.58;;;;;;;;;;10290493;28;20023;-79
2023/04/23 17:30:28;;;;;;;1.58;1.42;;;;;;;;;;10309109;28;20106;-81
2023/04/23 17:35:29;;;;;;;1.50;1.40;;;;;;;;;;10318916;28;20102;-81
2023/04/23 17:40:29;;;;;;;3.13;2.10;;;;;;;;;;10303325;28;20047;-80
2023/04/23 17:45:30;;;;;;;1.88;1.60;;;;;;;;;;10265318;28;20051;-81
2023/04/23 17:50:31;;;;;;;2.33;1.33;;;;;;;;;;10259006;28;20051;-79
2023/04/23 17:55:32;;;;;;;2.03;1.60;;;;;;;;;;10273803;28;20516;-79
2023/04/23 18:00:36;;;;;;;1.50;1.40;;;;;;;;;;10236767;28;20046;-77
2023/04/23 18:05:36;;;;;;;5.07;2.97;;;;;;;;;;10261628;28;20288;-77
2023/04/23 18:10:37;;;;;;;5.57;3.77;;;;;;;;;;10266718;28;20058;-77
2023/04/23 18:15:39;;;;;;;3.47;2.40;;;;;;;;;;10267880;28;20354;-81
2023/04/23 18:20:40;;;;;;;2.88;2.55;;;;;;;;;;10276443;28;20070;-82
2023/04/23 18:25:41;;;;;;;2.03;1.83;;;;;;;;;;10284582;28;20119;-82
2023/04/23 18:30:41;;;;;;;3.07;1.90;;;;;;;;;;10268601;28;20134;-82
2023/04/23 18:35:42;;;;;;;2.72;1.92;;;;;;;;;;10249438;28;20075;-85
2023/04/23 18:40:44;;;;;;;2.20;1.65;;;;;;;;;;10266387;28;20039;-84
2023/04/23 18:45:44;;;;;;;3.67;2.10;;;;;;;;;;10280867;28;20053;-85
2023/04/23 18:50:48;;;;;;;3.60;2.40;;;;;;;;;;10261458;28;20055;-81
2023/04/23 18:55:49;;;;;;;4.60;3.33;;;;;;;;;;10250596;28;20615;-81
2023/04/23 19:00:50;;;;;;;3.45;3.10;;;;;;;;;;10236981;28;20066;-82
2023/04/23 19:05:50;;;;;;;4.68;4.20;;;;;;;;;;10261041;28;20043;-84
2023/04/23 19:10:51;;;;;;;5.25;3.05;;;;;;;;;;10255740;28;20061;-83
2023/04/23 19:15:51;;;;;;;2.53;2.10;;;;;;;;;;10271765;28;20046;-84
2023/04/23 19:20:54;;;;;;;6.30;2.77;;;;;;;;;;10251936;28;20074;-86
2023/04/23 19:25:56;;;;;;;3.63;2.20;;;;;;;;;;10266870;28;20294;-84
2023/04/23 19:30:56;;;;;;;3.60;2.33;;;;;;;;;;10266425;28;20134;-80
2023/04/23 19:35:56;;;;;;;3.95;2.50;;;;;;;;;;10250132;28;20123;-82
2023/04/23 19:40:58;;;;;;;4.78;2.30;;;;;;;;;;10265700;28;20063;-82
2023/04/23 19:45:58;;;;;;;4.47;2.70;;;;;;;;;;10276759;28;20556;-79
2023/04/23 19:50:58;;;;;;;4.30;2.67;;;;;;;;;;10280295;28;20035;-80
2023/04/23 19:55:59;;;;;;;4.30;2.73;;;;;;;;;;10263950;28;20303;-81
2023/04/23 20:00:59;;;;;;;5.47;3.00;;;;;;;;;;10265338;28;20353;-79
2023/04/23 20:06:00;;;;;;;6.85;3.30;;;;;;;;;;10277015;28;20121;-79
2023/04/23 20:11:01;;;;;;;5.82;3.17;;;;;;;;;;10271874;28;20484;-80
2023/04/23 20:16:03;;;;;;;4.35;3.15;;;;;;;;;;10259268;28;20054;-80
2023/04/23 20:21:03;;;;;;;3.33;2.80;;;;;;;;;;10265094;28;20053;-82
2023/04/23 20:26:06;;;;;;;5.47;3.17;;;;;;;;;;10267913;28;20043;-81
2023/04/23 20:31:06;;;;;;;7.97;3.30;;;;;;;;;;10249207;28;20063;-81
2023/04/23 20:36:08;;;;;;;5.40;3.20;;;;;;;;;;10264529;28;20051;-82
2023/04/23 20:41:09;;;;;;;4.43;3.45;;;;;;;;;;10259350;28;20318;-78
2023/04/23 20:46:12;;;;;;;3.25;2.90;;;;;;;;;;10263674;28;20075;-82
2023/04/23 20:51:14;;;;;;;4.10;3.13;;;;;;;;;;10269085;28;20146;-82
2023/04/23 20:56:16;;;;;;;4.93;3.10;;;;;;;;;;10278016;28;20055;-82
2023/04/23 21:01:16;;;;;;;5.93;3.35;;;;;;;;;;10276228;28;20043;-81
2023/04/23 21:06:17;;;;;;;5.10;2.70;;;;;;;;;;10255878;28;20070;-82
2023/04/23 21:11:18;;;;;;;5.75;3.33;;;;;;;;;;10273523;28;20553;-80
2023/04/23 21:16:18;;;;;;;3.63;2.67;;;;;;;;;;10251395;28;20731;-80
2023/04/23 21:21:25;;;;;;;3.20;2.90;;;;;;;;;;10270136;28;20570;-82
2023/04/23 21:26:26;;;;;;;4.28;3.00;;;;;;;;;;10279000;28;20074;-80
2023/04/23 21:31:42;;;;;;;5.38;3.60;;;;;;;;;;10278806;28;20043;-79
2023/04/23 21:36:45;;;;;;;5.50;3.50;;;;;;;;;;10272439;28;20410;-78
2023/04/23 21:41:46;;;;;;;5.90;3.42;;;;;;;;;;10275545;28;20055;-81
2023/04/23 21:46:46;;;;;;;4.93;3.45;;;;;;;;;;10281765;28;20097;-81
2023/04/23 21:51:49;;;;;;;6.00;4.00;;;;;;;;;;10274336;28;20163;-81
2023/04/23 21:56:49;;;;;;;5.47;3.40;;;;;;;;;;10280452;28;20046;-82
2023/04/23 22:01:49;;;;;;;6.28;3.90;;;;;;;;;;10280584;28;20050;-78
2023/04/23 22:06:51;;;;;;;5.70;3.60;;;;;;;;;;10274384;28;20049;-76
2023/04/23 22:11:52;;;;;;;5.50;3.78;;;;;;;;;;10262838;28;20118;-79
2023/04/23 22:16:53;;;;;;;5.43;3.93;;;;;;;;;;10251680;28;20050;-79
2023/04/23 22:21:54;;;;;;;4.97;3.58;;;;;;;;;;10267298;28;20063;-81
2023/04/23 22:26:54;;;;;;;4.80;3.63;;;;;;;;;;10262583;28;20090;-82
2023/04/23 22:31:55;;;;;;;4.72;3.38;;;;;;;;;;10261309;28;20042;-81
2023/04/23 22:36:55;;;;;;;6.27;3.60;;;;;;;;;;10263163;28;20047;-81
2023/04/23 22:41:55;;;;;;;5.47;3.50;;;;;;;;;;10251315;28;20734;-79
2023/04/23 22:46:56;;;;;;;5.33;3.70;;;;;;;;;;10255374;28;20375;-81
2023/04/23 22:51:56;;;;;;;4.75;3.67;;;;;;;;;;10273423;28;20403;-81
2023/04/23 22:56:57;;;;;;;7.13;3.43;;;;;;;;;;10273018;28;20045;-81
2023/04/23 23:01:57;;;;;;;7.40;3.95;;;;;;;;;;10261814;28;20873;-82
2023/04/23 23:06:59;;;;;;;5.85;3.78;;;;;;;;;;10266702;28;20051;-81
2023/04/23 23:12:01;;;;;;;4.93;3.70;;;;;;;;;;10267659;28;20042;-82
2023/04/23 23:17:02;;;;;;;5.63;3.17;;;;;;;;;;10268499;28;20968;-81
2023/04/23 23:22:02;;;;;;;3.92;3.25;;;;;;;;;;10262650;28;20312;-83
2023/04/23 23:27:05;;;;;;;7.15;3.60;;;;;;;;;;10270965;28;20114;-84
2023/04/23 23:32:06;;;;;;;4.97;3.83;;;;;;;;;;10272467;28;20051;-84
2023/04/23 23:37:07;;;;;;;4.47;3.50;;;;;;;;;;10248220;28;20066;-83
2023/04/23 23:42:09;;;;;;;4.80;3.55;;;;;;;;;;10263732;28;20066;-84
2023/04/23 23:47:09;;;;;;;6.20;3.42;;;;;;;;;;10228239;28;20054;-83
2023/04/23 23:52:14;;;;;;;4.47;3.60;;;;;;;;;;10270012;28;20055;-83
2023/04/23 23:57:14;;;;;;;5.78;4.00;;;;;;;;;;10263888;28;20504;-83
